Time;durP1;ratioP1;P1;durP2;ratioP2;P2;SDS_P1;SDS_P2;PMS_P1;PMS_P2;Temp;Humidity;BMP_temperature;BMP_pressure;BME280_temperature;BME280_humidity;BME280_pressure;Samples;Min_cycle;Max_cycle;Signal;HPM_P1;HPM_P2
2022/04/25 00:00:49;;;;;;;1.85;0.68;;;;;;;12.99;61.32;100404.13;4949090;28;20412;-84
2022/04/25 00:03:16;;;;;;;1.35;0.70;;;;;;;12.81;61.67;100368.69;4964968;28;20513;-85
2022/04/25 00:05:42;;;;;;;1.63;0.68;;;;;;;13.13;60.87;100397.38;4946779;28;20052;-84
2022/04/25 00:08:09;;;;;;;1.05;0.73;;;;;;;13.25;60.89;100425.44;4931595;29;20386;-84
2022/04/25 00:10:36;;;;;;;1.83;0.57;;;;;;;12.67;60.74;100345.28;4946071;28;20396;-83
2022/04/25 00:13:02;;;;;;;1.50;0.60;;;;;;;12.85;62.25;100401.19;4946773;28;20141;-84
2022/04/25 00:15:29;;;;;;;2.20;0.77;;;;;;;13.08;61.55;100415.66;4946127;28;20414;-84
2022/04/25 00:17:56;;;;;;;0.82;0.70;;;;;;;13.05;61.88;100429.28;4945690;28;20051;-84
2022/04/25 00:20:23;;;;;;;1.00;0.60;;;;;;;13.01;63.34;100441.25;4945494;28;20111;-84
2022/04/25 00:22:49;;;;;;;1.77;0.88;;;;;;;12.79;62.38;100405.31;4946498;28;20052;-84
2022/04/25 00:25:16;;;;;;;2.05;0.80;;;;;;;12.93;61.48;100412.72;4964838;28;20298;-84
2022/04/25 00:27:43;;;;;;;0.60;0.60;;;;;;;12.75;62.20;100402.13;4963533;28;20286;-83
2022/04/25 00:30:10;;;;;;;1.98;0.88;;;;;;;13.08;61.59;100428.16;4948544;29;20051;-84
2022/04/25 00:32:36;;;;;;;0.43;0.43;;;;;;;13.11;60.96;100438.50;4949954;28;20101;-83
2022/04/25 00:35:05;;;;;;;0.60;0.60;;;;;;;13.02;61.98;100443.78;4949979;28;20055;-83
2022/04/25 00:37:31;;;;;;;1.42;0.80;;;;;;;12.94;62.28;100417.09;4949780;28;20059;-84
2022/04/25 00:39:58;;;;;;;2.30;0.60;;;;;;;13.00;61.95;100432.44;4964457;28;20530;-84
2022/04/25 00:42:26;;;;;;;2.15;0.65;;;;;;;12.71;62.74;100402.59;4964658;28;20047;-84
2022/04/25 00:44:52;;;;;;;3.53;1.00;;;;;;;12.88;61.82;100423.03;4949634;28;20058;-85
2022/04/25 00:47:20;;;;;;;0.77;0.77;;;;;;;12.96;61.94;100431.09;4964303;28;20051;-85
2022/04/25 00:49:46;;;;;;;1.35;0.88;;;;;;;12.79;61.16;100402.63;4964220;28;20052;-85
2022/04/25 00:52:13;;;;;;;9.30;0.80;;;;;;;12.98;61.96;100437.06;4949389;28;20048;-85
2022/04/25 00:54:41;;;;;;;0.93;0.60;;;;;;;12.06;61.52;100267.16;4948366;28;20098;-84
2022/04/25 00:57:09;;;;;;;2.50;0.63;;;;;;;13.17;60.53;100433.38;4964261;28;20055;-84
2022/04/25 00:59:36;;;;;;;1.17;0.70;;;;;;;13.10;61.01;100429.66;4964018;28;20050;-84
2022/04/25 01:02:04;;;;;;;1.63;0.73;;;;;;;12.58;61.14;100353.22;4947904;28;20074;-83
2022/04/25 01:04:31;;;;;;;1.08;0.70;;;;;;;12.90;61.31;100414.88;4949195;28;20048;-83
2022/04/25 01:06:59;;;;;;;1.13;0.63;;;;;;;12.99;61.80;100436.09;4934043;28;20056;-83
2022/04/25 01:09:26;;;;;;;1.90;0.68;;;;;;;12.91;61.05;100416.53;4945112;28;20059;-85
2022/04/25 01:11:52;;;;;;;2.70;0.50;;;;;;;13.11;60.78;100435.84;4944491;28;20067;-83
2022/04/25 01:14:21;;;;;;;2.42;0.93;;;;;;;13.20;59.95;100440.22;4930434;29;20056;-85
2022/04/25 01:16:48;;;;;;;0.73;0.63;;;;;;;13.12;60.21;100429.50;4944821;28;20058;-84
2022/04/25 01:19:14;;;;;;;2.50;0.80;;;;;;;13.12;60.54;100440.19;4930429;28;20122;-84
2022/04/25 01:21:43;;;;;;;1.27;0.80;;;;;;;12.99;60.44;100422.78;4944393;28;20311;-85
2022/04/25 01:27:16;;;;;;;2.28;0.70;;;;;;;13.08;60.31;100438.81;4948855;28;20055;-84
2022/04/25 01:29:44;;;;;;;0.82;0.65;;;;;;;12.95;61.06;100439.22;4963723;28;20272;-84
2022/04/25 01:32:12;;;;;;;1.17;0.68;;;;;;;12.30;60.24;100330.38;4948007;28;20055;-84
2022/04/25 01:34:39;;;;;;;0.50;0.50;;;;;;;12.89;61.80;100439.84;4963664;28;20497;-84
2022/04/25 01:37:18;;;;;;;1.08;0.60;;;;;;;12.76;61.82;100419.75;4963663;28;20055;-84
2022/04/25 01:39:50;;;;;;;2.22;0.73;;;;;;;12.85;61.89;100443.81;4963477;28;20054;-83
2022/04/25 01:42:18;;;;;;;2.28;0.60;;;;;;;12.72;62.18;100431.75;4964680;28;20051;-83
2022/04/25 01:44:45;;;;;;;1.90;0.50;;;;;;;12.81;61.97;100440.63;4949729;28;20118;-84
2022/04/25 01:47:12;;;;;;;0.65;0.40;;;;;;;12.79;62.08;100453.25;4963591;28;20063;-84
2022/04/25 01:49:39;;;;;;;1.13;0.55;;;;;;;12.70;62.99;100436.38;4963363;28;20051;-85
2022/04/25 01:52:20;;;;;;;0.88;0.40;;;;;;;12.73;62.24;100444.06;4948867;28;20054;-84
2022/04/25 01:54:47;;;;;;;2.95;0.75;;;;;;;12.82;62.05;100450.28;4963213;28;20059;-84
2022/04/25 01:57:14;;;;;;;1.85;0.57;;;;;;;12.79;61.93;100453.25;4963378;28;20066;-84
2022/04/25 01:59:41;;;;;;;2.45;0.60;;;;;;;12.73;62.67;100446.72;4947501;28;20532;-84
2022/04/25 02:02:07;;;;;;;1.58;0.70;;;;;;;12.38;61.98;100391.69;4962751;28;20279;-83
2022/04/25 02:04:34;;;;;;;2.40;0.50;;;;;;;12.57;62.07;100419.94;4962997;28;20593;-83
2022/04/25 02:07:01;;;;;;;1.80;0.70;;;;;;;12.11;61.70;100344.69;4933064;28;20073;-85
2022/04/25 02:09:37;;;;;;;2.05;0.75;;;;;;;12.52;63.42;100415.06;4943750;29;20056;-83
2022/04/25 02:12:05;;;;;;;2.05;0.60;;;;;;;12.50;62.26;100419.75;4944776;28;20043;-83
2022/04/25 02:14:32;;;;;;;1.48;0.50;;;;;;;12.15;62.43;100360.19;4943722;28;20487;-83
2022/04/25 02:17:00;;;;;;;1.85;0.65;;;;;;;12.50;62.72;100425.06;4943567;28;20141;-83
2022/04/25 02:19:28;;;;;;;2.20;0.70;;;;;;;12.06;62.16;100355.78;4943303;28;20422;-84
2022/04/25 02:21:56;;;;;;;1.30;0.60;;;;;;;12.52;62.85;100433.72;4943535;28;20052;-84
2022/04/25 02:24:23;;;;;;;1.92;0.70;;;;;;;12.52;62.83;100436.38;4957219;28;20055;-83
2022/04/25 02:26:50;;;;;;;1.73;0.90;;;;;;;12.54;62.64;100431.75;4963245;28;20221;-83
2022/04/25 02:29:20;;;;;;;0.40;0.40;;;;;;;12.28;63.51;100393.56;4946936;29;20051;-85
2022/04/25 02:31:47;;;;;;;0.65;0.40;;;;;;;12.46;64.26;100434.34;4962960;28;20257;-84
2022/04/25 02:34:14;;;;;;;0.77;0.73;;;;;;;12.30;63.58;100407.56;4962934;28;20066;-84
2022/04/25 02:36:41;;;;;;;2.13;0.73;;;;;;;11.57;63.81;100288.78;4948017;28;20078;-83
2022/04/25 02:39:08;;;;;;;2.38;0.50;;;;;;;12.45;64.71;100432.69;4948127;28;20051;-83
2022/04/25 02:41:34;;;;;;;2.50;0.85;;;;;;;12.33;65.88;100432.06;4962702;28;20043;-84
2022/04/25 02:44:01;;;;;;;2.15;0.80;;;;;;;12.33;64.52;100442.72;4962358;28;20051;-85
2022/04/25 02:46:28;;;;;;;1.25;0.50;;;;;;;12.15;65.56;100410.75;4947905;28;20436;-84
2022/04/25 02:48:55;;;;;;;1.15;0.70;;;;;;;12.01;64.23;100355.41;4948064;28;20089;-84
2022/04/25 02:51:23;;;;;;;1.52;0.82;;;;;;;11.87;64.62;100342.63;4963231;28;20126;-84
2022/04/25 02:53:50;;;;;;;2.28;0.75;;;;;;;11.88;65.82;100352.28;4966030;28;20502;-85
2022/04/25 02:56:17;;;;;;;0.88;0.70;;;;;;;12.37;66.50;100424.59;4949993;28;20058;-84
2022/04/25 02:58:44;;;;;;;4.10;0.70;;;;;;;12.33;66.17;100426.75;4966023;28;20394;-84
2022/04/25 03:01:11;;;;;;;2.28;0.60;;;;;;;11.73;66.69;100323.53;4951271;28;20516;-84
2022/04/25 03:03:38;;;;;;;5.85;0.75;;;;;;;12.20;66.82;100426.28;4950957;28;20073;-84
2022/04/25 03:06:08;;;;;;;2.20;0.80;;;;;;;12.16;66.33;100420.44;4943358;28;20479;-84
2022/04/25 03:08:37;;;;;;;0.80;0.75;;;;;;;12.10;67.42;100423.69;4946680;28;20055;-84
2022/04/25 03:11:08;;;;;;;2.08;0.60;;;;;;;12.01;67.58;100413.09;4946656;28;20353;-84
2022/04/25 03:13:36;;;;;;;1.35;0.63;;;;;;;11.89;68.39;100397.38;4932178;29;20494;-84
2022/04/25 03:16:04;;;;;;;1.27;0.60;;;;;;;12.01;67.47;100419.25;4946672;29;20063;-84
2022/04/25 03:18:32;;;;;;;0.85;0.63;;;;;;;12.00;68.09;100417.59;4946633;29;20486;-84
2022/04/25 03:20:59;;;;;;;3.40;0.77;;;;;;;11.98;68.64;100423.06;4932390;28;20059;-84
2022/04/25 03:23:27;;;;;;;1.95;0.77;;;;;;;11.93;68.40;100430.66;4938085;28;20391;-83
2022/04/25 03:25:54;;;;;;;3.25;0.75;;;;;;;10.92;68.38;100256.97;4950020;28;20066;-84
2022/04/25 03:28:21;;;;;;;1.30;0.68;;;;;;;11.92;68.53;100414.84;4951194;28;20110;-84
2022/04/25 03:30:48;;;;;;;3.22;0.63;;;;;;;11.82;68.85;100409.56;4949741;28;20047;-84
2022/04/25 03:33:15;;;;;;;3.35;0.68;;;;;;;11.82;68.89;100419.34;4965369;28;20059;-84
2022/04/25 03:35:49;;;;;;;0.80;0.45;;;;;;;11.37;69.57;100349.19;4950915;28;20502;-84
2022/04/25 03:38:18;;;;;;;1.15;0.80;;;;;;;11.90;68.23;100408.84;4949730;28;20059;-84
2022/04/25 03:40:45;;;;;;;3.03;0.95;;;;;;;11.77;67.80;100398.50;4965515;28;20063;-84
2022/04/25 03:43:15;;;;;;;3.42;1.10;;;;;;;11.86;69.12;100412.75;4949638;28;20434;-83
2022/04/25 03:45:43;;;;;;;1.30;0.65;;;;;;;11.39;69.05;100349.06;4965488;28;20051;-84
2022/04/25 03:48:10;;;;;;;1.67;1.00;;;;;;;11.62;69.24;100394.69;4965543;28;20050;-84
2022/04/25 03:50:37;;;;;;;1.63;0.75;;;;;;;10.97;69.09;100296.38;4950605;28;20122;-84
2022/04/25 03:53:10;;;;;;;2.47;0.90;;;;;;;11.61;69.88;100409.81;4949410;28;20150;-84
2022/04/25 03:58:23;;;;;;;2.72;0.90;;;;;;;11.13;70.68;100355.03;4950800;28;20066;-84
2022/04/25 04:00:50;;;;;;;2.30;1.10;;;;;;;11.55;70.75;100423.69;4950100;28;20470;-84
2022/04/25 04:03:18;;;;;;;2.35;0.98;;;;;;;11.32;70.32;100392.16;4948862;28;20059;-83
2022/04/25 04:05:50;;;;;;;4.22;1.08;;;;;;;11.09;70.64;100366.94;4944877;28;20075;-84
2022/04/25 04:08:17;;;;;;;1.30;0.80;;;;;;;10.52;70.55;100276.72;4930169;29;20489;-84
2022/04/25 04:10:44;;;;;;;1.50;0.90;;;;;;;11.41;70.27;100422.34;4931148;29;20050;-84
2022/04/25 04:13:11;;;;;;;2.20;0.90;;;;;;;11.40;69.81;100415.34;4946027;29;20073;-84
2022/04/25 04:15:38;;;;;;;2.88;0.93;;;;;;;11.31;70.02;100417.09;4929967;29;20055;-84
2022/04/25 04:18:05;;;;;;;1.67;0.80;;;;;;;11.23;69.78;100403.66;4931078;29;20047;-84
2022/04/25 04:20:32;;;;;;;4.45;1.30;;;;;;;11.39;70.87;100428.81;4932441;29;20048;-84
2022/04/25 04:23:00;;;;;;;1.27;0.90;;;;;;;11.15;71.13;100378.81;4935813;29;20650;-84
2022/04/25 04:25:27;;;;;;;1.33;0.90;;;;;;;11.47;71.66;100434.22;4932922;28;20056;-84
2022/04/25 04:27:54;;;;;;;1.50;0.95;;;;;;;11.44;71.16;100427.38;4951957;28;20048;-84
2022/04/25 04:30:20;;;;;;;3.90;1.00;;;;;;;11.27;71.73;100405.06;4954118;28;20557;-85
2022/04/25 04:32:47;;;;;;;3.42;0.95;;;;;;;11.31;72.43;100417.09;4949638;28;20434;-83
2022/04/25 04:36:17;;;;;;;1.58;0.80;;;;;;;11.45;72.05;100433.53;4948702;28;20055;-83
2022/04/25 04:38:05;;;;;;;3.85;1.30;;;;;;;11.39;70.88;100407.53;4930461;28;20051;-84
2022/04/25 04:40:32;;;;;;;1.52;1.00;;;;;;;11.30;70.61;100419.88;4944839;29;20059;-84
2022/04/25 04:42:59;;;;;;;5.68;1.00;;;;;;;11.48;72.30;100433.22;4928073;29;20113;-84
2022/04/25 04:45:26;;;;;;;5.60;1.73;;;;;;;11.39;71.79;100419.00;4944391;28;20066;-84
2022/04/25 04:47:54;;;;;;;5.40;1.52;;;;;;;10.96;71.73;100347.84;4944088;28;20542;-84
2022/04/25 04:50:21;;;;;;;3.60;1.48;;;;;;;11.55;72.17;100450.25;4944418;28;20052;-84
2022/04/25 04:52:59;;;;;;;3.08;1.00;;;;;;;11.57;71.42;100456.28;4949629;28;20501;-84
2022/04/25 04:55:26;;;;;;;2.22;1.30;;;;;;;11.58;71.92;100457.09;4968111;28;20065;-84
2022/04/25 04:57:53;;;;;;;2.05;1.00;;;;;;;11.62;71.84;100456.66;4986065;28;20406;-84
2022/04/25 05:00:23;;;;;;;4.25;1.30;;;;;;;11.20;72.10;100382.72;4985318;28;20043;-83
2022/04/25 05:02:51;;;;;;;6.57;1.45;;;;;;;11.67;71.85;100465.03;4982432;28;20090;-84
2022/04/25 05:05:18;;;;;;;4.18;1.63;;;;;;;11.51;71.93;100430.28;4981814;28;20062;-84
2022/04/25 05:07:45;;;;;;;5.10;1.77;;;;;;;11.56;72.38;100441.31;4981559;28;20058;-83
2022/04/25 05:10:12;;;;;;;8.38;2.00;;;;;;;11.77;72.62;100465.84;4966703;28;20054;-83
2022/04/25 05:12:50;;;;;;;5.07;1.80;;;;;;;11.73;72.37;100453.84;4966443;28;20081;-84
2022/04/25 05:15:17;;;;;;;4.60;1.50;;;;;;;11.89;71.89;100478.97;4966166;28;20059;-84
2022/04/25 05:17:48;;;;;;;3.03;2.00;;;;;;;11.68;71.49;100439.31;4966595;28;20402;-83
2022/04/25 05:20:17;;;;;;;7.97;1.73;;;;;;;12.01;71.44;100477.78;4981729;28;20065;-83
2022/04/25 05:22:45;;;;;;;9.73;2.00;;;;;;;12.05;71.62;100488.97;4981247;28;20051;-84
2022/04/25 05:25:14;;;;;;;7.85;2.00;;;;;;;11.86;72.24;100453.47;4981384;28;20047;-84
2022/04/25 05:27:45;;;;;;;10.32;2.45;;;;;;;12.12;72.04;100496.22;4966284;28;20054;-84
2022/04/25 05:30:14;;;;;;;11.30;2.05;;;;;;;11.45;72.45;100391.81;4966083;28;20497;-84
2022/04/25 05:32:42;;;;;;;5.65;1.40;;;;;;;12.09;72.44;100469.91;4965978;28;20480;-84
2022/04/25 05:35:09;;;;;;;4.45;1.45;;;;;;;11.95;72.75;100435.81;4980713;28;20055;-85
2022/04/25 05:37:36;;;;;;;4.88;1.70;;;;;;;11.86;72.34;100415.41;4966115;28;20110;-83
2022/04/25 05:40:04;;;;;;;3.65;1.08;;;;;;;12.16;70.71;100455.03;4962311;28;20055;-84
2022/04/25 05:42:31;;;;;;;2.55;1.10;;;;;;;12.50;71.56;100507.63;4946634;28;20307;-84
2022/04/25 05:45:00;;;;;;;3.85;1.40;;;;;;;12.61;70.20;100498.53;4946358;28;20059;-84
2022/04/25 05:47:30;;;;;;;2.65;1.38;;;;;;;11.93;70.60;100388.09;4945810;28;20069;-84
2022/04/25 05:53:00;;;;;;;6.47;1.33;;;;;;;12.64;71.21;100489.41;4939048;28;20087;-84
2022/04/25 05:55:29;;;;;;;3.35;1.40;;;;;;;12.76;71.23;100489.03;4946087;28;20054;-84
2022/04/25 05:57:58;;;;;;;2.08;1.30;;;;;;;12.68;71.00;100461.50;4947338;28;20055;-84
2022/04/25 06:00:26;;;;;;;1.92;1.17;;;;;;;12.23;70.39;100369.25;4946023;28;20079;-83
2022/04/25 06:02:57;;;;;;;1.60;1.30;;;;;;;13.14;69.58;100502.16;4946605;28;20077;-84
2022/04/25 06:05:24;;;;;;;1.33;1.00;;;;;;;13.10;70.73;100500.78;4946570;28;20129;-83
2022/04/25 06:07:51;;;;;;;4.22;1.33;;;;;;;12.86;70.79;100446.31;4960657;28;20485;-83
2022/04/25 06:10:20;;;;;;;3.08;1.20;;;;;;;13.35;69.89;100510.69;4946433;28;20047;-84
2022/04/25 06:12:50;;;;;;;1.35;1.10;;;;;;;13.26;70.60;100491.06;4948092;28;20413;-84
2022/04/25 06:15:18;;;;;;;2.92;0.98;;;;;;;13.38;68.77;100494.34;4961742;28;20256;-83
2022/04/25 06:17:50;;;;;;;1.15;0.90;;;;;;;13.68;66.61;100510.84;4961896;28;20054;-84
2022/04/25 06:20:18;;;;;;;2.67;0.98;;;;;;;13.92;65.33;100517.31;4962131;28;20260;-83
2022/04/25 06:22:57;;;;;;;2.53;1.40;;;;;;;13.95;65.22;100498.31;4961951;28;20054;-83
2022/04/25 06:25:30;;;;;;;1.77;0.85;;;;;;;14.07;64.53;100518.38;4948208;28;20200;-83
2022/04/25 06:27:58;;;;;;;1.42;0.90;;;;;;;13.85;65.25;100477.91;4967739;28;20058;-85
2022/04/25 06:30:28;;;;;;;2.55;1.17;;;;;;;14.13;64.61;100509.72;4965226;28;20381;-85
2022/04/25 06:32:57;;;;;;;2.85;0.90;;;;;;;13.75;65.93;100442.53;4964018;28;20051;-84
2022/04/25 06:35:24;;;;;;;1.83;1.17;;;;;;;14.41;63.84;100523.63;4964287;28;20337;-84
2022/04/25 06:37:51;;;;;;;2.50;1.20;;;;;;;14.45;63.73;100527.66;4948756;28;20059;-84
2022/04/25 06:40:18;;;;;;;2.28;0.80;;;;;;;14.39;63.87;100508.78;4951071;28;20086;-84
2022/04/25 06:42:46;;;;;;;2.90;1.23;;;;;;;14.41;64.06;100509.47;4954552;28;20062;-85
2022/04/25 06:45:13;;;;;;;1.73;0.90;;;;;;;14.24;63.15;100453.34;4967272;28;20426;-83
2022/04/25 06:47:40;;;;;;;1.95;0.75;;;;;;;14.74;62.62;100507.72;4952505;28;20058;-84
2022/04/25 06:50:08;;;;;;;2.60;1.05;;;;;;;14.79;62.96;100509.88;4966548;28;20062;-85
2022/04/25 06:52:35;;;;;;;3.28;0.98;;;;;;;14.98;63.58;100538.09;4966489;28;20047;-84
2022/04/25 06:55:07;;;;;;;3.00;1.08;;;;;;;15.05;62.72;100526.59;4951671;28;20048;-84
2022/04/25 06:57:34;;;;;;;3.08;1.15;;;;;;;15.05;62.95;100534.63;4966424;28;20051;-84
2022/04/25 07:00:08;;;;;;;3.15;0.90;;;;;;;15.08;62.85;100533.44;4950870;28;20137;-85
2022/04/25 07:02:55;;;;;;;2.47;0.90;;;;;;;15.08;62.50;100536.94;4963348;28;20102;-84
2022/04/25 07:05:22;;;;;;;1.83;0.75;;;;;;;15.13;61.05;100526.59;4966257;28;20051;-83
2022/04/25 07:07:49;;;;;;;2.55;0.63;;;;;;;14.47;59.62;100426.00;4966106;28;20051;-84
2022/04/25 07:10:15;;;;;;;1.50;0.82;;;;;;;14.92;59.42;100483.50;4966557;28;20367;-84
2022/04/25 07:12:42;;;;;;;1.55;0.88;;;;;;;14.98;59.75;100493.53;4951642;29;20281;-85
2022/04/25 07:15:09;;;;;;;1.45;0.80;;;;;;;14.86;59.84;100473.47;4970023;28;20059;-85
2022/04/25 07:17:36;;;;;;;0.63;0.63;;;;;;;15.37;60.03;100557.00;4954519;28;20047;-84
2022/04/25 07:20:07;;;;;;;1.42;1.08;;;;;;;13.83;59.51;100295.78;4954327;28;20713;-85
2022/04/25 07:30:50;;;;;;;1.77;0.95;;;;;;;15.21;59.39;100503.53;4932768;29;20051;-84
2022/04/25 07:33:16;;;;;;;2.08;1.13;;;;;;;15.69;59.29;100565.97;4946771;28;20466;-84
2022/04/25 07:35:43;;;;;;;4.78;0.90;;;;;;;15.62;59.39;100559.63;4946595;28;20048;-83
2022/04/25 07:38:10;;;;;;;1.92;0.90;;;;;;;15.47;59.25;100551.47;4945768;28;20044;-84
2022/04/25 07:40:37;;;;;;;1.05;0.80;;;;;;;15.54;59.59;100569.34;4946374;28;20573;-84
2022/04/25 07:43:04;;;;;;;1.52;0.90;;;;;;;15.59;60.04;100579.53;4945909;28;20058;-84
2022/04/25 07:45:31;;;;;;;3.03;1.00;;;;;;;15.57;60.07;100581.56;4946609;28;20059;-84
2022/04/25 07:47:57;;;;;;;1.50;0.93;;;;;;;15.56;59.71;100571.88;4946429;28;20059;-85
2022/04/25 07:50:25;;;;;;;3.22;1.25;;;;;;;15.41;60.97;100547.63;4946220;28;20070;-85
2022/04/25 07:52:51;;;;;;;1.55;1.00;;;;;;;15.65;61.44;100576.16;4946024;28;20059;-84
2022/04/25 07:55:18;;;;;;;1.92;0.77;;;;;;;15.62;61.63;100563.13;4931688;29;20048;-83
2022/04/25 07:57:45;;;;;;;2.50;0.90;;;;;;;15.65;61.97;100575.34;4946306;28;20284;-85
2022/04/25 08:00:13;;;;;;;2.00;1.00;;;;;;;15.71;61.33;100569.34;4945687;28;20501;-84
2022/04/25 08:02:40;;;;;;;4.22;1.13;;;;;;;15.59;61.54;100548.25;4946089;28;20064;-85
2022/04/25 08:05:07;;;;;;;1.05;0.75;;;;;;;15.52;61.98;100539.25;4945662;28;20326;-85
2022/04/25 08:07:34;;;;;;;1.42;1.02;;;;;;;15.99;61.66;100599.22;4960824;28;20193;-84
2022/04/25 08:10:01;;;;;;;3.30;1.05;;;;;;;16.14;62.34;100599.34;4962109;28;20055;-85
2022/04/25 08:18:06;;;;;;;1.25;1.15;;;;;;;15.87;61.51;100569.28;4930611;29;20052;-85
2022/04/25 08:20:35;;;;;;;2.38;1.10;;;;;;;16.00;61.99;100598.22;4961523;28;20107;-83
2022/04/25 08:23:05;;;;;;;1.67;0.98;;;;;;;16.11;61.94;100613.06;4948346;28;20236;-84
2022/04/25 08:25:32;;;;;;;1.30;0.90;;;;;;;16.02;62.21;100582.81;4950051;28;20249;-84
2022/04/25 08:27:59;;;;;;;1.70;1.00;;;;;;;16.10;61.47;100600.72;4964535;28;20386;-85
2022/04/25 08:30:26;;;;;;;1.80;1.27;;;;;;;15.74;61.91;100537.72;4950252;28;20054;-84
2022/04/25 08:32:55;;;;;;;3.22;1.50;;;;;;;16.07;61.76;100568.91;4967145;28;20054;-84
2022/04/25 08:35:23;;;;;;;1.75;1.30;;;;;;;16.38;61.71;100603.75;4984104;28;20047;-84
2022/04/25 08:37:50;;;;;;;1.92;0.80;;;;;;;16.39;61.31;100600.91;4983121;28;20054;-85
2022/04/25 08:40:17;;;;;;;3.63;1.40;;;;;;;16.15;60.67;100560.84;4983569;28;20054;-84
2022/04/25 08:42:44;;;;;;;1.10;1.00;;;;;;;16.46;61.79;100603.75;4983697;28;20524;-85
2022/04/25 08:45:13;;;;;;;1.20;1.10;;;;;;;16.70;60.85;100612.66;4969319;28;20054;-85
2022/04/25 08:48:00;;;;;;;1.92;1.10;;;;;;;16.69;60.54;100611.81;4968814;28;20058;-85
2022/04/25 08:50:28;;;;;;;1.58;1.20;;;;;;;16.63;60.36;100596.44;4967081;28;20047;-84
2022/04/25 08:52:56;;;;;;;6.07;1.00;;;;;;;16.81;60.05;100618.47;4957543;28;20050;-85
2022/04/25 08:55:25;;;;;;;1.60;0.98;;;;;;;16.86;60.35;100624.13;4965329;28;20059;-84
2022/04/25 08:57:55;;;;;;;1.60;1.10;;;;;;;17.00;59.92;100630.59;4952768;28;20553;-83
2022/04/25 09:00:23;;;;;;;1.30;0.80;;;;;;;16.99;59.13;100612.00;4963045;28;20058;-83
2022/04/25 09:02:50;;;;;;;0.90;0.80;;;;;;;16.76;59.02;100583.28;4977376;28;20059;-83
2022/04/25 09:05:18;;;;;;;1.10;0.60;;;;;;;16.79;58.83;100563.38;4964216;28;20449;-85
2022/04/25 09:07:45;;;;;;;0.82;0.80;;;;;;;17.10;57.99;100614.28;4948136;29;20063;-84
2022/04/25 09:10:15;;;;;;;2.83;0.98;;;;;;;17.27;57.96;100620.34;4963691;28;20450;-84
2022/04/25 09:12:45;;;;;;;2.03;1.08;;;;;;;17.07;57.94;100598.53;4963892;28;20063;-84
2022/04/25 09:15:19;;;;;;;2.15;1.27;;;;;;;17.17;57.91;100603.66;4949037;28;20498;-84
2022/04/25 09:17:55;;;;;;;3.30;1.88;;;;;;;17.41;58.83;100621.41;4962557;28;20150;-84
2022/04/25 09:20:24;;;;;;;2.13;1.20;;;;;;;17.66;57.65;100630.09;4949323;28;20540;-84
2022/04/25 09:22:53;;;;;;;1.55;0.85;;;;;;;17.18;57.38;100519.50;4948297;28;20508;-84
2022/04/25 09:25:26;;;;;;;4.68;1.00;;;;;;;17.19;57.01;100513.13;4963748;28;20057;-84
2022/04/25 09:28:14;;;;;;;2.83;0.95;;;;;;;18.02;57.14;100619.50;4949301;28;20379;-84
2022/04/25 09:31:00;;;;;;;2.40;1.08;;;;;;;17.90;57.16;100586.06;4964025;28;20206;-85
2022/04/25 09:33:27;;;;;;;3.22;1.02;;;;;;;18.27;56.74;100605.78;4964180;28;20402;-85
2022/04/25 09:35:56;;;;;;;1.70;1.10;;;;;;;18.29;55.95;100552.69;4964081;28;20061;-83
2022/04/25 09:38:31;;;;;;;1.52;1.10;;;;;;;18.93;55.53;100633.53;4948869;28;20118;-85
2022/04/25 09:40:58;;;;;;;1.35;1.08;;;;;;;18.87;54.59;100614.63;4963203;28;20516;-85
2022/04/25 09:43:30;;;;;;;1.13;0.98;;;;;;;19.16;53.99;100635.19;4949050;28;20059;-85
2022/04/25 09:46:11;;;;;;;3.58;1.20;;;;;;;19.04;53.82;100634.03;4963328;28;20059;-85
2022/04/25 09:48:59;;;;;;;2.08;1.13;;;;;;;19.07;54.82;100641.72;4963443;28;20048;-85
2022/04/25 09:51:26;;;;;;;1.92;0.85;;;;;;;18.67;54.35;100568.66;4963190;28;20051;-85
2022/04/25 09:53:54;;;;;;;0.82;0.57;;;;;;;18.59;54.49;100537.31;4963500;28;20316;-84
2022/04/25 09:56:23;;;;;;;1.48;0.80;;;;;;;19.48;53.88;100631.13;4963904;28;20466;-84
2022/04/25 09:59:09;;;;;;;2.08;0.90;;;;;;;19.55;53.08;100636.59;4973698;28;20079;-85
2022/04/25 10:01:39;;;;;;;3.45;1.20;;;;;;;19.23;53.44;100587.66;4964748;28;20070;-85
2022/04/25 10:04:36;;;;;;;0.98;0.85;;;;;;;19.59;52.71;100640.56;4961223;28;20060;-85
2022/04/25 10:07:05;;;;;;;2.03;0.95;;;;;;;18.97;53.78;100599.00;4959332;28;20078;-83
2022/04/25 10:09:34;;;;;;;1.00;0.90;;;;;;;18.80;54.48;100574.19;4944434;28;20060;-85
2022/04/25 10:12:03;;;;;;;1.77;0.80;;;;;;;19.18;53.80;100646.59;4928696;29;20059;-85
2022/04/25 10:14:30;;;;;;;1.17;0.80;;;;;;;19.29;54.07;100643.38;4960626;28;20051;-85
2022/04/25 10:16:59;;;;;;;1.60;1.42;;;;;;;19.16;54.35;100602.91;4929540;29;20358;-84
2022/04/25 10:19:27;;;;;;;1.85;0.95;;;;;;;19.50;53.32;100633.66;4960127;28;20056;-84
2022/04/25 10:21:55;;;;;;;1.10;0.68;;;;;;;19.44;53.08;100621.78;4959498;28;20083;-84
2022/04/25 10:24:25;;;;;;;2.90;1.02;;;;;;;19.52;52.69;100634.28;4942484;28;20043;-85
2022/04/25 10:26:53;;;;;;;0.90;0.90;;;;;;;19.62;51.61;100656.31;4946979;28;20051;-83
2022/04/25 10:29:34;;;;;;;0.68;0.68;;;;;;;19.36;51.78;100654.22;4962784;28;20521;-83
2022/04/25 10:32:09;;;;;;;2.10;0.70;;;;;;;19.27;53.08;100644.59;4948411;28;20183;-85
2022/04/25 10:35:04;;;;;;;1.00;0.80;;;;;;;19.34;52.98;100651.72;4948605;28;20244;-83
2022/04/25 10:37:36;;;;;;;1.55;0.80;;;;;;;19.26;52.47;100649.16;4962808;28;20082;-85
2022/04/25 10:40:05;;;;;;;1.77;0.98;;;;;;;19.02;52.84;100636.91;4948166;28;20062;-85
2022/04/25 10:45:58;;;;;;;1.63;0.80;;;;;;;18.99;53.84;100659.66;4947771;29;20059;-84
2022/04/25 10:48:46;;;;;;;2.50;0.90;;;;;;;18.51;54.87;100583.97;4946722;28;20043;-84
2022/04/25 10:51:16;;;;;;;1.75;0.65;;;;;;;18.84;54.21;100623.91;4946118;28;20138;-84
2022/04/25 10:54:03;;;;;;;1.90;0.85;;;;;;;18.87;54.78;100645.03;4962318;28;20048;-82
2022/04/25 10:56:31;;;;;;;1.85;0.98;;;;;;;18.81;54.84;100623.44;4962490;28;20498;-83
2022/04/25 10:59:24;;;;;;;1.55;0.95;;;;;;;19.03;54.70;100654.72;4961828;28;20055;-84
2022/04/25 11:01:53;;;;;;;2.15;0.93;;;;;;;19.07;54.66;100653.31;4962477;28;20047;-84
2022/04/25 11:04:21;;;;;;;2.85;1.15;;;;;;;18.97;54.21;100623.19;4946476;28;20122;-83
2022/04/25 11:06:48;;;;;;;2.80;1.00;;;;;;;19.31;54.36;100665.56;4934117;29;20361;-84
2022/04/25 11:09:40;;;;;;;0.80;0.73;;;;;;;19.34;54.11;100662.47;4928603;29;20051;-84
2022/04/25 11:12:07;;;;;;;2.45;1.00;;;;;;;19.38;53.86;100652.19;4943341;28;20056;-84
2022/04/25 11:14:34;;;;;;;4.63;1.20;;;;;;;19.51;54.37;100659.53;4932519;29;20060;-84
2022/04/25 11:17:27;;;;;;;2.22;0.80;;;;;;;19.64;53.07;100656.97;4932554;29;20052;-84
2022/04/25 11:19:55;;;;;;;1.63;1.10;;;;;;;19.64;53.15;100621.97;4931877;28;20039;-83
2022/04/25 11:22:41;;;;;;;6.85;1.05;;;;;;;20.13;53.07;100652.59;4947267;28;20103;-82
2022/04/25 11:25:22;;;;;;;2.67;1.10;;;;;;;20.46;51.93;100663.53;4973740;28;20091;-83
2022/04/25 11:28:04;;;;;;;;;;;;;;;20.77;51.36;100656.84;4974402;28;20059;-84
2022/04/25 11:30:31;;;;;;;0.80;0.80;;;;;;;21.01;51.04;100656.31;4968851;28;20313;-83
2022/04/25 11:33:06;;;;;;;1.92;0.80;;;;;;;21.05;50.62;100633.28;4965967;28;20062;-85
2022/04/25 11:35:33;;;;;;;0.80;0.75;;;;;;;21.16;49.99;100628.31;4965852;28;20058;-83
2022/04/25 11:38:00;;;;;;;1.55;0.90;;;;;;;21.34;50.11;100632.06;4965976;28;20509;-84
2022/04/25 11:40:27;;;;;;;2.60;1.00;;;;;;;21.40;49.06;100571.03;4950442;28;20055;-84
2022/04/25 11:42:54;;;;;;;2.72;1.15;;;;;;;21.66;48.85;100575.59;4965428;28;20055;-84
2022/04/25 11:45:21;;;;;;;0.90;0.80;;;;;;;22.52;46.81;100639.41;4965499;28;20051;-84
2022/04/25 11:47:48;;;;;;;1.08;0.80;;;;;;;22.52;46.80;100616.97;4965650;28;20490;-84
2022/04/25 11:50:19;;;;;;;2.70;1.10;;;;;;;22.82;46.40;100647.00;4966027;28;20047;-84
2022/04/25 11:52:51;;;;;;;2.00;1.00;;;;;;;22.62;45.73;100636.25;4965605;28;20093;-84
2022/04/25 11:55:34;;;;;;;2.03;1.10;;;;;;;22.48;46.14;100635.50;4950586;28;20043;-84
2022/04/25 11:58:03;;;;;;;1.88;1.10;;;;;;;22.18;46.49;100632.44;4965639;28;20066;-83
2022/04/25 12:00:30;;;;;;;1.30;1.08;;;;;;;22.11;47.17;100647.84;4950433;28;20047;-84